createdAt,value
2023-08-15T00:00:49.496Z,5.28
2023-08-15T00:03:16.154Z,4.22
2023-08-15T00:05:42.599Z,4.47
2023-08-15T00:08:09.095Z,4.13
2023-08-15T00:10:35.662Z,5.70
2023-08-15T00:13:04.338Z,4.88
2023-08-15T00:15:31.310Z,4.93
2023-08-15T00:17:57.804Z,4.28
2023-08-15T00:20:24.362Z,4.93
2023-08-15T00:22:50.856Z,4.80
2023-08-15T00:25:17.287Z,4.13
2023-08-15T00:27:43.850Z,4.30
2023-08-15T00:30:10.628Z,4.03
2023-08-15T00:32:37.436Z,7.28
2023-08-15T00:35:05.113Z,4.90
2023-08-15T00:37:32.848Z,4.63
2023-08-15T00:39:59.929Z,5.10
2023-08-15T00:42:27.086Z,4.10
2023-08-15T00:44:53.617Z,4.32
2023-08-15T00:47:21.090Z,4.13
2023-08-15T00:49:48.826Z,3.92
2023-08-15T00:52:16.341Z,3.50
2023-08-15T00:54:44.739Z,3.75
2023-08-15T00:57:11.768Z,3.53
2023-08-15T00:59:38.704Z,3.67
2023-08-15T01:02:05.722Z,3.40
2023-08-15T01:04:32.531Z,3.13
2023-08-15T01:06:59.309Z,3.47
2023-08-15T01:09:25.754Z,3.45
2023-08-15T01:11:57.101Z,2.80
2023-08-15T01:14:26.963Z,3.33
2023-08-15T01:16:53.539Z,3.30
2023-08-15T01:19:23.070Z,3.35
2023-08-15T01:21:50.166Z,3.28
2023-08-15T01:24:16.790Z,3.58
2023-08-15T01:26:43.194Z,3.40
2023-08-15T01:29:09.736Z,3.55
2023-08-15T01:31:37.228Z,3.08
2023-08-15T01:34:10.446Z,2.97
2023-08-15T01:36:43.138Z,3.15
2023-08-15T01:39:10.447Z,3.67
2023-08-15T01:41:38.786Z,3.42
2023-08-15T01:44:05.523Z,4.07
2023-08-15T01:46:32.282Z,3.63
2023-08-15T01:49:00.709Z,3.33
2023-08-15T01:51:27.493Z,4.18
2023-08-15T01:53:54.096Z,3.53
2023-08-15T01:56:20.471Z,3.83
2023-08-15T01:58:47.512Z,3.60
2023-08-15T02:01:15.376Z,3.78
2023-08-15T02:03:41.891Z,4.25
2023-08-15T02:06:09.227Z,3.80
2023-08-15T02:08:35.682Z,3.90
2023-08-15T02:11:02.099Z,4.70
2023-08-15T02:13:31.867Z,4.47
2023-08-15T02:15:58.464Z,5.18
2023-08-15T02:18:29.522Z,4.18
2023-08-15T02:23:22.359Z,4.35
2023-08-15T02:25:48.842Z,4.70
2023-08-15T02:28:15.266Z,4.15
2023-08-15T02:30:41.769Z,5.03
2023-08-15T02:33:08.620Z,4.35
2023-08-15T02:35:38.847Z,4.65
2023-08-15T02:38:05.325Z,4.15
2023-08-15T02:40:32.766Z,4.32
2023-08-15T02:42:59.311Z,4.88
2023-08-15T02:45:25.720Z,4.22
2023-08-15T02:47:53.271Z,5.07
2023-08-15T02:50:19.742Z,5.07
2023-08-15T02:52:46.183Z,6.85
2023-08-15T02:55:12.631Z,5.97
2023-08-15T02:57:39.142Z,5.90
2023-08-15T03:00:05.883Z,5.85
2023-08-15T03:02:32.376Z,5.25
2023-08-15T03:04:58.924Z,5.38
2023-08-15T03:07:25.384Z,5.30
2023-08-15T03:09:51.796Z,5.82
2023-08-15T03:12:18.185Z,6.40
2023-08-15T03:14:44.679Z,5.43
2023-08-15T03:17:11.149Z,5.35
2023-08-15T03:19:38.839Z,5.82
2023-08-15T03:22:07.674Z,7.20
2023-08-15T03:24:34.079Z,5.95
2023-08-15T03:27:02.269Z,5.72
2023-08-15T03:29:30.643Z,5.47
2023-08-15T03:31:59.059Z,5.88
2023-08-15T03:34:25.540Z,6.82
2023-08-15T03:36:52.061Z,6.72
2023-08-15T03:39:18.454Z,6.80
2023-08-15T03:41:46.097Z,7.10
2023-08-15T03:44:12.541Z,7.78
2023-08-15T03:46:40.342Z,8.20
2023-08-15T03:49:06.838Z,8.23
2023-08-15T03:54:05.263Z,10.15
2023-08-15T03:56:31.678Z,11.27
2023-08-15T03:58:58.363Z,11.93
2023-08-15T04:01:24.862Z,11.25
2023-08-15T04:03:52.068Z,13.30
2023-08-15T04:06:18.663Z,13.77
2023-08-15T04:08:46.481Z,13.73
2023-08-15T04:11:12.972Z,15.10
2023-08-15T04:13:39.684Z,15.18
2023-08-15T04:16:06.080Z,13.40
2023-08-15T04:18:34.854Z,12.57
2023-08-15T04:21:01.430Z,13.57
2023-08-15T04:23:27.946Z,13.45
2023-08-15T04:25:54.531Z,14.07
2023-08-15T04:28:21.090Z,14.98
2023-08-15T04:30:47.451Z,14.15
2023-08-15T04:33:13.865Z,14.48
2023-08-15T04:35:40.697Z,14.90
2023-08-15T04:38:07.227Z,13.20
2023-08-15T04:40:34.745Z,12.38
2023-08-15T04:43:01.353Z,13.10
2023-08-15T04:45:27.986Z,15.13
2023-08-15T04:47:54.548Z,13.40
2023-08-15T04:50:21.033Z,12.13
2023-08-15T04:52:47.697Z,12.18
2023-08-15T04:55:17.011Z,11.45
2023-08-15T04:57:43.846Z,10.75
2023-08-15T05:00:10.577Z,10.20
2023-08-15T05:02:37.169Z,12.95
2023-08-15T05:05:05.057Z,11.18
2023-08-15T05:07:31.588Z,9.32
2023-08-15T05:09:58.037Z,11.18
2023-08-15T05:12:24.448Z,10.70
2023-08-15T05:14:50.846Z,10.23
2023-08-15T05:17:17.290Z,10.55
2023-08-15T05:19:43.709Z,9.90
2023-08-15T05:22:10.238Z,10.88
2023-08-15T05:24:37.081Z,10.88
2023-08-15T05:27:03.552Z,11.82
2023-08-15T05:29:30.124Z,10.50
2023-08-15T05:31:56.519Z,9.75
2023-08-15T05:34:22.913Z,8.98
2023-08-15T05:36:49.302Z,9.50
2023-08-15T05:39:15.789Z,8.73
2023-08-15T05:41:42.173Z,10.05
2023-08-15T05:44:08.593Z,8.45
2023-08-15T05:46:35.012Z,8.77
2023-08-15T05:49:01.456Z,8.50
2023-08-15T05:51:27.854Z,7.80
2023-08-15T05:53:54.263Z,7.60
2023-08-15T05:56:20.722Z,7.63
2023-08-15T05:58:47.282Z,7.22
2023-08-15T06:01:13.722Z,7.72
2023-08-15T06:03:51.769Z,7.20
2023-08-15T06:06:19.164Z,7.32
2023-08-15T06:08:45.553Z,7.22
2023-08-15T06:11:11.954Z,6.88
2023-08-15T06:13:38.612Z,7.60
2023-08-15T06:16:05.041Z,6.90
2023-08-15T06:18:31.507Z,6.97
2023-08-15T06:20:57.917Z,6.95
2023-08-15T06:23:24.395Z,7.05
2023-08-15T06:25:50.877Z,7.00
2023-08-15T06:28:20.571Z,7.13
2023-08-15T06:30:47.070Z,6.75
2023-08-15T06:33:13.616Z,6.47
2023-08-15T06:35:40.038Z,6.28
2023-08-15T06:38:06.545Z,6.18
2023-08-15T06:40:33.016Z,5.40
2023-08-15T06:42:59.416Z,5.82
2023-08-15T06:45:25.871Z,5.35
2023-08-15T06:47:52.371Z,6.20
2023-08-15T06:50:18.880Z,4.88
2023-08-15T06:52:45.299Z,6.55
2023-08-15T06:55:12.286Z,5.47
2023-08-15T06:57:38.709Z,5.75
2023-08-15T07:00:08.036Z,5.05
2023-08-15T07:02:34.547Z,4.97
2023-08-15T07:05:01.028Z,4.85
2023-08-15T07:07:27.519Z,5.10
2023-08-15T07:09:53.975Z,5.10
2023-08-15T07:12:20.562Z,4.63
2023-08-15T07:14:47.230Z,4.75
2023-08-15T07:17:15.284Z,4.57
2023-08-15T07:19:43.532Z,4.63
2023-08-15T07:22:09.935Z,4.95
2023-08-15T07:24:37.101Z,4.10
2023-08-15T07:27:04.113Z,4.40
2023-08-15T07:29:30.877Z,4.63
2023-08-15T07:32:02.347Z,4.20
2023-08-15T07:34:28.929Z,4.38
2023-08-15T07:36:55.290Z,4.20
2023-08-15T07:39:21.708Z,3.45
2023-08-15T07:41:48.167Z,4.28
2023-08-15T07:44:14.612Z,4.78
2023-08-15T07:46:41.163Z,4.38
2023-08-15T07:49:07.632Z,4.22
2023-08-15T07:51:34.114Z,4.80
2023-08-15T07:54:00.763Z,4.20
2023-08-15T07:56:27.235Z,3.67
2023-08-15T07:58:53.732Z,3.92
2023-08-15T08:01:20.216Z,4.68
2023-08-15T08:03:46.652Z,4.38
2023-08-15T08:06:31.824Z,3.75
2023-08-15T08:09:00.158Z,4.35
2023-08-15T08:11:26.676Z,6.00
2023-08-15T08:13:53.084Z,4.25
2023-08-15T08:16:19.531Z,3.95
2023-08-15T08:18:45.951Z,3.67
2023-08-15T08:21:12.502Z,3.67
2023-08-15T08:23:39.056Z,3.55
2023-08-15T08:26:06.214Z,4.15
2023-08-15T08:28:32.752Z,3.92
2023-08-15T08:31:00.196Z,4.35
2023-08-15T08:33:26.807Z,4.45
2023-08-15T08:35:53.226Z,3.75
2023-08-15T08:38:20.729Z,3.28
2023-08-15T08:40:48.716Z,3.30
2023-08-15T08:43:16.638Z,3.83
2023-08-15T08:45:47.891Z,3.53
2023-08-15T08:48:16.231Z,4.00
2023-08-15T08:50:42.652Z,4.43
2023-08-15T08:53:09.079Z,4.65
2023-08-15T08:55:35.671Z,4.35
2023-08-15T08:58:03.793Z,4.53
2023-08-15T09:00:32.473Z,4.45
2023-08-15T09:02:59.313Z,5.25
2023-08-15T09:05:27.594Z,4.18
2023-08-15T09:07:54.318Z,4.68
2023-08-15T09:10:22.299Z,5.18
2023-08-15T09:12:48.715Z,6.30
2023-08-15T09:15:15.454Z,6.13
2023-08-15T09:17:43.350Z,4.50
2023-08-15T09:20:11.292Z,4.18
2023-08-15T09:22:43.162Z,4.07
2023-08-15T09:25:10.102Z,4.32
2023-08-15T09:27:37.173Z,4.80
2023-08-15T09:30:11.211Z,3.90
2023-08-15T09:32:39.065Z,3.90
2023-08-15T09:35:05.860Z,4.40
2023-08-15T09:37:32.305Z,4.30
2023-08-15T09:39:58.771Z,4.75
2023-08-15T09:42:26.435Z,4.10
2023-08-15T09:44:53.664Z,4.05
2023-08-15T09:47:20.664Z,5.45
2023-08-15T09:49:48.300Z,4.55
2023-08-15T09:52:15.357Z,4.20
2023-08-15T09:54:42.498Z,4.75
2023-08-15T09:57:08.953Z,5.10
2023-08-15T09:59:37.370Z,3.88
2023-08-15T10:02:05.036Z,4.47
2023-08-15T10:04:32.689Z,5.35
2023-08-15T10:06:59.409Z,4.60
2023-08-15T10:09:26.433Z,5.25
2023-08-15T10:11:53.357Z,5.32
2023-08-15T10:14:20.408Z,4.93
2023-08-15T10:16:47.631Z,5.97
2023-08-15T10:19:21.986Z,5.63
2023-08-15T10:21:48.986Z,6.57
2023-08-15T10:24:15.816Z,6.03
2023-08-15T10:26:43.794Z,6.45
2023-08-15T10:29:10.375Z,5.78
2023-08-15T10:31:37.768Z,5.80
2023-08-15T10:34:04.744Z,5.85
2023-08-15T10:36:34.140Z,5.72
2023-08-15T10:39:08.424Z,6.20
2023-08-15T10:41:38.088Z,5.80
2023-08-15T10:44:08.384Z,6.03
2023-08-15T10:46:36.553Z,6.20
2023-08-15T10:49:07.584Z,6.28
2023-08-15T10:51:34.103Z,5.78
2023-08-15T10:54:02.013Z,5.68
2023-08-15T10:56:29.749Z,5.35
2023-08-15T10:58:56.781Z,5.72
2023-08-15T11:01:24.472Z,5.03
2023-08-15T11:03:52.882Z,5.85
2023-08-15T11:06:19.481Z,4.88
2023-08-15T11:08:48.971Z,5.40
2023-08-15T11:11:15.715Z,5.37
2023-08-15T11:13:42.874Z,4.78
2023-08-15T11:16:09.877Z,4.53
2023-08-15T11:18:36.705Z,4.60
2023-08-15T11:21:03.746Z,4.80
2023-08-15T11:23:30.334Z,3.95
2023-08-15T11:26:01.668Z,5.32
2023-08-15T11:28:28.113Z,4.25
2023-08-15T11:30:55.201Z,4.80
2023-08-15T11:33:23.144Z,4.03
2023-08-15T11:35:50.181Z,4.03
2023-08-15T11:38:20.165Z,4.13
2023-08-15T11:43:13.721Z,3.13
2023-08-15T11:45:44.347Z,3.17
2023-08-15T11:48:10.902Z,3.33
2023-08-15T11:50:44.636Z,3.33
2023-08-15T11:53:15.609Z,3.58
2023-08-15T11:55:42.834Z,3.38
2023-08-15T11:58:24.760Z,2.60
2023-08-15T12:01:01.229Z,2.83
2023-08-15T12:03:27.955Z,3.05
2023-08-15T12:05:55.554Z,3.35
2023-08-15T12:08:22.049Z,3.42
2023-08-15T12:10:48.531Z,3.08
2023-08-15T12:13:14.997Z,2.75
2023-08-15T12:15:41.509Z,3.00
2023-08-15T12:18:08.108Z,2.53
2023-08-15T12:20:34.788Z,3.42
2023-08-15T12:23:01.327Z,3.60
2023-08-15T12:25:28.583Z,2.80
2023-08-15T12:27:55.171Z,3.22
2023-08-15T12:30:22.128Z,3.10
2023-08-15T12:32:48.886Z,2.97
2023-08-15T12:35:15.311Z,3.58
2023-08-15T12:37:41.739Z,2.97
2023-08-15T12:40:14.836Z,3.22
2023-08-15T12:42:48.321Z,3.35
2023-08-15T12:45:14.779Z,2.70
2023-08-15T12:47:41.239Z,3.00
2023-08-15T12:50:07.940Z,2.88
2023-08-15T12:52:35.136Z,2.85
2023-08-15T12:55:02.417Z,2.80
2023-08-15T12:57:29.129Z,2.95
2023-08-15T12:59:55.515Z,3.00
2023-08-15T13:02:22.210Z,3.17
2023-08-15T13:04:48.832Z,3.05
2023-08-15T13:07:15.354Z,3.17
2023-08-15T13:09:41.836Z,3.08
2023-08-15T13:12:08.347Z,4.30
2023-08-15T13:14:34.761Z,2.85
2023-08-15T13:17:04.848Z,2.55
2023-08-15T13:19:34.263Z,3.47
2023-08-15T13:22:00.715Z,2.70
2023-08-15T13:24:27.264Z,3.63
2023-08-15T13:26:53.669Z,3.30
2023-08-15T13:29:20.090Z,3.30
2023-08-15T13:31:46.550Z,3.25
2023-08-15T13:34:13.040Z,3.30
2023-08-15T13:36:39.509Z,2.80
2023-08-15T13:39:06.961Z,2.95
2023-08-15T13:41:33.387Z,3.00
2023-08-15T13:43:59.821Z,3.35
2023-08-15T13:46:26.342Z,2.83
2023-08-15T13:48:52.870Z,2.90
2023-08-15T13:51:20.554Z,3.22
2023-08-15T13:53:50.377Z,3.58
2023-08-15T13:56:17.096Z,3.17
2023-08-15T13:58:43.685Z,3.50
2023-08-15T14:01:10.136Z,2.85
2023-08-15T14:03:36.966Z,3.30
2023-08-15T14:06:04.955Z,3.55
2023-08-15T14:08:32.758Z,3.42
2023-08-15T14:11:00.068Z,3.88
2023-08-15T14:13:26.514Z,3.63
2023-08-15T14:15:52.970Z,3.33
2023-08-15T14:18:19.360Z,3.70
2023-08-15T14:20:45.834Z,3.78
2023-08-15T14:23:12.244Z,3.30
2023-08-15T14:25:39.894Z,2.92
2023-08-15T14:28:07.102Z,3.25
2023-08-15T14:30:33.824Z,3.00
2023-08-15T14:33:00.361Z,4.50
2023-08-15T14:35:26.822Z,3.70
2023-08-15T14:37:53.238Z,3.00
2023-08-15T14:40:22.690Z,2.67
2023-08-15T14:45:17.001Z,4.70
2023-08-15T14:47:43.883Z,1.80
2023-08-15T14:50:12.378Z,1.90
2023-08-15T14:52:43.080Z,6.70
2023-08-15T14:55:10.124Z,2.63
2023-08-15T14:57:36.806Z,5.72
2023-08-15T15:00:05.365Z,2.40
2023-08-15T15:02:35.233Z,3.10
2023-08-15T15:05:01.885Z,3.13
2023-08-15T15:07:28.386Z,2.13
2023-08-15T15:09:54.841Z,2.70
2023-08-15T15:12:21.247Z,2.50
2023-08-15T15:14:48.935Z,2.50
2023-08-15T15:17:15.527Z,2.65
2023-08-15T15:19:41.976Z,6.60
2023-08-15T15:22:08.548Z,3.83
2023-08-15T15:24:34.920Z,3.30
2023-08-15T15:27:02.572Z,7.55
2023-08-15T15:29:28.947Z,3.42
2023-08-15T15:31:55.478Z,3.00
2023-08-15T15:34:22.054Z,2.90
2023-08-15T15:36:50.127Z,2.30
2023-08-15T15:39:16.838Z,2.25
2023-08-15T15:41:43.242Z,5.20
2023-08-15T15:44:09.803Z,3.92
2023-08-15T15:46:48.797Z,2.85
2023-08-15T15:49:20.779Z,2.42
2023-08-15T15:51:47.230Z,2.88
2023-08-15T15:54:13.912Z,10.00
2023-08-15T15:56:40.349Z,5.78
2023-08-15T15:59:06.788Z,8.65
2023-08-15T16:01:33.508Z,7.25
2023-08-15T16:04:00.146Z,5.05
2023-08-15T16:06:27.914Z,6.43
2023-08-15T16:08:55.160Z,3.60
2023-08-15T16:11:21.977Z,5.47
2023-08-15T16:13:48.364Z,3.65
2023-08-15T16:16:14.876Z,7.60
2023-08-15T16:18:41.577Z,6.05
2023-08-15T16:21:08.190Z,3.38
2023-08-15T16:23:34.649Z,3.00
2023-08-15T16:26:01.484Z,2.15
2023-08-15T16:28:27.903Z,2.38
2023-08-15T16:30:54.520Z,2.08
2023-08-15T16:33:21.080Z,2.55
2023-08-15T16:35:48.647Z,2.58
2023-08-15T16:38:16.236Z,3.63
2023-08-15T16:40:43.556Z,7.13
2023-08-15T16:43:11.358Z,3.15
2023-08-15T16:45:38.889Z,5.13
2023-08-15T16:48:05.965Z,3.72
2023-08-15T16:50:32.582Z,3.13
2023-08-15T16:53:01.041Z,3.42
2023-08-15T16:55:28.076Z,7.57
2023-08-15T16:57:54.610Z,4.32
2023-08-15T17:00:21.101Z,8.95
2023-08-15T17:02:47.660Z,4.53
2023-08-15T17:05:14.111Z,3.97
2023-08-15T17:07:40.771Z,3.45
2023-08-15T17:10:07.354Z,3.25
2023-08-15T17:12:33.778Z,2.83
2023-08-15T17:15:00.228Z,3.10
2023-08-15T17:17:26.690Z,3.20
2023-08-15T17:19:53.112Z,2.85
2023-08-15T17:22:19.725Z,3.50
2023-08-15T17:24:46.855Z,3.67
2023-08-15T17:27:13.245Z,3.72
2023-08-15T17:29:39.780Z,3.53
2023-08-15T17:32:08.915Z,3.22
2023-08-15T17:34:35.812Z,3.45
2023-08-15T17:37:05.200Z,2.78
2023-08-15T17:39:31.606Z,3.50
2023-08-15T17:41:58.832Z,3.45
2023-08-15T17:44:25.418Z,3.30
2023-08-15T17:46:52.087Z,3.42
2023-08-15T17:49:18.601Z,2.65
2023-08-15T17:51:45.004Z,3.10
2023-08-15T17:54:11.420Z,2.95
2023-08-15T17:56:37.958Z,3.67
2023-08-15T17:59:04.500Z,3.38
2023-08-15T18:01:33.868Z,3.08
2023-08-15T18:04:05.094Z,2.92
2023-08-15T18:06:31.896Z,3.33
2023-08-15T18:08:58.785Z,3.63
2023-08-15T18:11:25.590Z,2.38
2023-08-15T18:13:52.010Z,2.90
2023-08-15T18:16:18.434Z,3.50
2023-08-15T18:18:45.536Z,2.80
2023-08-15T18:21:12.312Z,2.88
2023-08-15T18:23:39.049Z,3.58
2023-08-15T18:26:05.469Z,2.92
2023-08-15T18:28:31.909Z,3.17
2023-08-15T18:30:58.308Z,5.40
2023-08-15T18:33:24.670Z,3.53
2023-08-15T18:35:52.498Z,2.80
2023-08-15T18:38:18.873Z,2.92
2023-08-15T18:40:45.478Z,3.17
2023-08-15T18:43:11.996Z,2.70
2023-08-15T18:45:47.117Z,3.45
2023-08-15T18:48:15.905Z,3.05
2023-08-15T18:50:43.196Z,3.15
2023-08-15T18:53:09.696Z,3.60
2023-08-15T18:55:36.202Z,3.15
2023-08-15T18:58:02.641Z,3.10
2023-08-15T19:00:29.162Z,3.03
2023-08-15T19:02:55.646Z,2.90
2023-08-15T19:05:22.117Z,2.88
2023-08-15T19:07:48.760Z,3.10
2023-08-15T19:10:15.174Z,2.65
2023-08-15T19:12:41.712Z,3.50
2023-08-15T19:15:08.554Z,4.07
2023-08-15T19:17:35.142Z,3.00
2023-08-15T19:20:01.688Z,3.70
2023-08-15T19:22:28.168Z,4.90
2023-08-15T19:24:54.837Z,2.88
2023-08-15T19:27:21.986Z,2.20
2023-08-15T19:29:48.379Z,1.80
2023-08-15T19:32:15.107Z,1.80
2023-08-15T19:34:48.743Z,1.60
2023-08-15T19:37:23.336Z,1.42
2023-08-15T19:39:58.116Z,1.10
2023-08-15T19:42:25.100Z,1.30
2023-08-15T19:44:51.900Z,1.10
2023-08-15T19:47:18.514Z,1.13
2023-08-15T19:49:45.113Z,2.38
2023-08-15T19:52:11.778Z,1.40
2023-08-15T19:54:38.205Z,1.65
2023-08-15T19:57:04.994Z,1.52
2023-08-15T19:59:31.566Z,1.63
2023-08-15T20:01:58.017Z,1.67
2023-08-15T20:04:24.778Z,1.63
2023-08-15T20:06:52.226Z,1.77
2023-08-15T20:09:18.813Z,2.63
2023-08-15T20:11:45.239Z,1.20
2023-08-15T20:14:12.869Z,1.02
2023-08-15T20:16:40.212Z,3.38
2023-08-15T20:19:07.005Z,1.50
2023-08-15T20:21:33.459Z,1.33
2023-08-15T20:24:00.310Z,1.88
2023-08-15T20:26:26.731Z,1.50
2023-08-15T20:28:57.679Z,2.05
2023-08-15T20:31:24.843Z,2.10
2023-08-15T20:33:51.296Z,2.72
2023-08-15T20:36:17.755Z,1.92
2023-08-15T20:38:44.202Z,2.20
2023-08-15T20:41:10.612Z,2.83
2023-08-15T20:43:37.141Z,3.17
2023-08-15T20:46:03.897Z,2.83
2023-08-15T20:48:30.355Z,2.60
2023-08-15T20:50:57.380Z,2.85
2023-08-15T20:53:23.821Z,3.03
2023-08-15T20:55:50.204Z,3.35
2023-08-15T20:58:16.714Z,3.97
2023-08-15T21:00:45.011Z,3.17
2023-08-15T21:03:12.679Z,3.03
2023-08-15T21:05:39.253Z,3.33
2023-08-15T21:08:05.821Z,6.45
2023-08-15T21:10:32.234Z,5.22
2023-08-15T21:12:58.918Z,5.63
2023-08-15T21:15:25.719Z,2.80
2023-08-15T21:17:52.148Z,3.45
2023-08-15T21:20:18.904Z,3.75
2023-08-15T21:22:45.679Z,3.95
2023-08-15T21:25:12.927Z,3.58
2023-08-15T21:27:40.595Z,4.10
2023-08-15T21:30:08.777Z,3.80
2023-08-15T21:32:36.651Z,4.05
2023-08-15T21:35:03.555Z,3.38
2023-08-15T21:37:30.142Z,3.72
2023-08-15T21:39:56.940Z,3.60
2023-08-15T21:42:23.434Z,3.88
2023-08-15T21:44:49.958Z,3.95
2023-08-15T21:47:16.371Z,4.20
2023-08-15T21:49:42.883Z,3.92
2023-08-15T21:52:09.642Z,4.03
2023-08-15T21:54:36.077Z,4.57
2023-08-15T21:57:06.284Z,3.30
2023-08-15T21:59:33.095Z,4.10
2023-08-15T22:02:00.095Z,4.05
2023-08-15T22:04:26.710Z,3.30
2023-08-15T22:06:53.185Z,4.20
2023-08-15T22:09:19.648Z,4.53
2023-08-15T22:11:46.038Z,4.32
2023-08-15T22:14:12.440Z,3.90
2023-08-15T22:16:38.909Z,3.55
2023-08-15T22:19:05.450Z,3.47
2023-08-15T22:21:31.866Z,3.97
2023-08-15T22:23:58.347Z,4.60
2023-08-15T22:26:24.972Z,3.92
2023-08-15T22:28:51.360Z,4.15
2023-08-15T22:31:17.900Z,4.57
2023-08-15T22:33:44.614Z,3.83
2023-08-15T22:36:11.041Z,4.35
2023-08-15T22:38:37.444Z,3.78
2023-08-15T22:41:03.870Z,4.22
2023-08-15T22:43:30.248Z,4.43
2023-08-15T22:45:56.746Z,5.07
2023-08-15T22:48:23.228Z,4.55
2023-08-15T22:50:49.978Z,3.92
2023-08-15T22:53:16.387Z,4.45
2023-08-15T22:55:42.800Z,4.15
2023-08-15T22:58:11.225Z,4.55
2023-08-15T23:00:37.637Z,5.07
2023-08-15T23:03:04.098Z,4.38
2023-08-15T23:05:31.894Z,3.85
2023-08-15T23:07:58.272Z,4.32
2023-08-15T23:10:24.697Z,4.03
2023-08-15T23:12:51.110Z,4.18
2023-08-15T23:15:17.563Z,4.25
2023-08-15T23:17:43.969Z,4.25
2023-08-15T23:20:10.905Z,3.55
2023-08-15T23:22:37.314Z,4.22
2023-08-15T23:25:04.315Z,4.30
2023-08-15T23:27:30.860Z,3.72
2023-08-15T23:29:58.771Z,3.92
2023-08-15T23:32:25.991Z,3.58
2023-08-15T23:34:52.414Z,3.92
2023-08-15T23:37:19.096Z,4.25
2023-08-15T23:39:45.527Z,3.67
2023-08-15T23:42:11.922Z,4.38
2023-08-15T23:44:38.924Z,3.85
2023-08-15T23:47:05.393Z,3.35
2023-08-15T23:49:31.854Z,4.57
2023-08-15T23:51:58.285Z,3.72
2023-08-15T23:54:25.527Z,3.67
2023-08-15T23:56:52.023Z,3.72
2023-08-15T23:59:18.383Z,3.97
